createdAt,value
2022-08-10T00:00:11.055Z,2.08
2022-08-10T00:02:38.460Z,2.20
2022-08-10T00:05:05.690Z,1.75
2022-08-10T00:07:32.379Z,1.98
2022-08-10T00:09:59.020Z,2.28
2022-08-10T00:12:49.017Z,2.42
2022-08-10T00:15:53.050Z,2.08
2022-08-10T00:18:05.751Z,2.55
2022-08-10T00:20:32.428Z,2.42
2022-08-10T00:22:59.206Z,2.30
2022-08-10T00:25:25.948Z,2.30
2022-08-10T00:28:03.528Z,2.40
2022-08-10T00:30:30.897Z,2.40
2022-08-10T00:32:57.619Z,2.70
2022-08-10T00:35:24.429Z,2.40
2022-08-10T00:37:56.207Z,2.75
2022-08-10T00:40:36.886Z,2.40
2022-08-10T00:43:06.111Z,2.47
2022-08-10T00:45:33.582Z,2.83
2022-08-10T00:48:00.280Z,2.50
2022-08-10T00:50:27.003Z,3.00
2022-08-10T00:52:53.875Z,2.83
2022-08-10T00:55:21.064Z,2.85
2022-08-10T00:57:55.157Z,2.65
2022-08-10T01:00:23.598Z,2.80
2022-08-10T01:02:50.599Z,2.70
2022-08-10T01:05:17.456Z,3.03
2022-08-10T01:08:07.773Z,3.20
2022-08-10T01:10:43.865Z,2.90
2022-08-10T01:13:10.560Z,3.22
2022-08-10T01:15:49.254Z,3.22
2022-08-10T01:18:28.740Z,3.35
2022-08-10T01:20:58.387Z,3.50
2022-08-10T01:23:51.545Z,3.30
2022-08-10T01:26:31.387Z,3.03
2022-08-10T01:29:35.947Z,3.42
2022-08-10T01:32:05.416Z,3.47
2022-08-10T01:34:44.904Z,3.05
2022-08-10T01:37:13.783Z,3.33
2022-08-10T01:39:43.991Z,3.42
2022-08-10T01:42:14.306Z,3.25
2022-08-10T01:44:48.591Z,3.28
2022-08-10T01:47:37.447Z,3.03
2022-08-10T01:50:08.575Z,3.13
2022-08-10T01:52:35.870Z,3.20
2022-08-10T01:55:03.956Z,3.40
2022-08-10T01:57:32.353Z,4.22
2022-08-10T02:00:02.454Z,3.90
2022-08-10T02:02:34.025Z,3.40
2022-08-10T02:05:02.720Z,3.70
2022-08-10T02:07:30.865Z,3.90
2022-08-10T02:09:59.742Z,3.42
2022-08-10T02:12:29.586Z,3.90
2022-08-10T02:15:03.035Z,3.75
2022-08-10T02:17:59.259Z,3.47
2022-08-10T02:20:37.195Z,3.55
2022-08-10T02:23:09.185Z,3.90
2022-08-10T02:25:41.327Z,3.90
2022-08-10T02:28:11.573Z,3.70
2022-08-10T02:30:38.518Z,3.50
2022-08-10T02:33:05.831Z,3.97
2022-08-10T02:35:39.928Z,3.58
2022-08-10T02:38:59.205Z,3.60
2022-08-10T02:45:13.075Z,4.32
2022-08-10T02:45:17.971Z,4.07
2022-08-10T02:47:07.890Z,3.83
2022-08-10T02:49:42.069Z,4.28
2022-08-10T02:52:16.719Z,4.00
2022-08-10T02:54:51.234Z,3.88
2022-08-10T02:57:33.044Z,3.83
2022-08-10T03:00:04.180Z,3.65
2022-08-10T03:02:35.503Z,4.28
2022-08-10T03:05:11.665Z,4.20
2022-08-10T03:07:54.400Z,4.22
2022-08-10T03:10:28.348Z,4.07
2022-08-10T03:13:01.025Z,4.45
2022-08-10T03:15:29.156Z,4.35
2022-08-10T03:17:58.791Z,4.47
2022-08-10T03:20:37.766Z,4.03
2022-08-10T03:23:24.039Z,3.92
2022-08-10T03:25:54.888Z,4.35
2022-08-10T03:28:27.374Z,3.97
2022-08-10T03:30:54.860Z,4.22
2022-08-10T03:33:23.338Z,4.57
2022-08-10T03:36:42.054Z,4.00
2022-08-10T03:38:38.541Z,4.18
2022-08-10T03:41:06.604Z,4.18
2022-08-10T03:43:34.120Z,4.07
2022-08-10T03:46:04.006Z,3.92
2022-08-10T03:48:42.468Z,4.47
2022-08-10T03:51:16.943Z,4.68
2022-08-10T03:54:04.368Z,4.53
2022-08-10T03:56:32.990Z,4.53
2022-08-10T03:59:01.017Z,4.70
2022-08-10T04:02:41.897Z,4.28
2022-08-10T04:04:21.020Z,4.18
2022-08-10T04:06:55.108Z,4.22
2022-08-10T04:09:42.590Z,4.82
2022-08-10T04:12:14.462Z,4.85
2022-08-10T04:14:51.144Z,4.85
2022-08-10T04:18:04.481Z,4.32
2022-08-10T04:20:16.993Z,4.95
2022-08-10T04:22:44.132Z,4.47
2022-08-10T04:25:12.575Z,4.65
2022-08-10T04:27:39.306Z,5.28
2022-08-10T04:30:06.613Z,5.25
2022-08-10T04:32:34.401Z,4.80
2022-08-10T04:35:04.305Z,4.85
2022-08-10T04:37:31.594Z,4.80
2022-08-10T04:39:58.438Z,5.22
2022-08-10T04:42:25.326Z,5.53
2022-08-10T04:44:52.026Z,5.30
2022-08-10T04:47:57.602Z,4.75
2022-08-10T04:50:06.095Z,5.18
2022-08-10T04:52:32.892Z,4.72
2022-08-10T04:54:59.837Z,4.97
2022-08-10T04:57:26.650Z,4.70
2022-08-10T04:59:53.459Z,4.45
2022-08-10T05:02:29.379Z,5.30
2022-08-10T05:05:05.962Z,4.85
2022-08-10T05:07:33.171Z,4.18
2022-08-10T05:10:19.898Z,5.28
2022-08-10T05:12:47.118Z,4.68
2022-08-10T05:15:15.535Z,4.60
2022-08-10T05:18:08.596Z,4.60
2022-08-10T05:20:30.875Z,4.30
2022-08-10T05:22:57.592Z,4.85
2022-08-10T05:25:24.270Z,4.80
2022-08-10T05:27:52.384Z,4.38
2022-08-10T05:30:20.742Z,4.15
2022-08-10T05:32:55.465Z,5.00
2022-08-10T05:35:27.429Z,5.50
2022-08-10T05:38:10.741Z,4.40
2022-08-10T05:40:46.990Z,4.10
2022-08-10T05:43:21.558Z,4.22
2022-08-10T05:46:19.386Z,4.25
2022-08-10T05:48:55.066Z,4.25
2022-08-10T05:51:27.792Z,4.18
2022-08-10T05:54:03.317Z,4.63
2022-08-10T05:56:56.380Z,4.13
2022-08-10T06:00:11.247Z,4.13
2022-08-10T06:02:33.755Z,3.65
2022-08-10T06:05:10.016Z,3.88
2022-08-10T06:07:42.866Z,4.10
2022-08-10T06:10:12.833Z,4.18
2022-08-10T06:12:54.006Z,3.97
2022-08-10T06:15:51.538Z,4.20
2022-08-10T06:18:09.843Z,4.18
2022-08-10T06:20:36.764Z,4.00
2022-08-10T06:23:04.534Z,4.40
2022-08-10T06:26:11.181Z,4.00
2022-08-10T06:28:19.251Z,4.25
2022-08-10T06:30:46.371Z,3.80
2022-08-10T06:33:15.933Z,3.22
2022-08-10T06:35:43.582Z,3.63
2022-08-10T06:38:11.565Z,3.45
2022-08-10T06:40:40.366Z,3.63
2022-08-10T06:43:10.313Z,3.55
2022-08-10T06:46:07.332Z,3.78
2022-08-10T06:48:51.827Z,3.40
2022-08-10T06:51:28.116Z,3.63
2022-08-10T06:53:57.708Z,3.17
2022-08-10T06:56:35.827Z,3.30
2022-08-10T06:59:36.995Z,3.28
2022-08-10T07:02:09.589Z,3.35
2022-08-10T07:04:40.088Z,2.85
2022-08-10T07:07:07.957Z,2.83
2022-08-10T07:09:38.141Z,2.53
2022-08-10T07:12:09.059Z,2.70
2022-08-10T07:14:41.761Z,2.50
2022-08-10T07:17:16.027Z,2.25
2022-08-10T07:19:49.674Z,2.35
2022-08-10T07:23:08.361Z,2.80
2022-08-10T07:25:08.406Z,2.80
2022-08-10T07:27:39.237Z,2.40
2022-08-10T07:30:22.616Z,2.97
2022-08-10T07:32:51.205Z,2.60
2022-08-10T07:35:19.344Z,2.45
2022-08-10T07:37:48.058Z,2.47
2022-08-10T07:40:16.130Z,2.10
2022-08-10T07:42:45.981Z,2.30
2022-08-10T07:45:13.268Z,2.13
2022-08-10T07:47:53.846Z,2.30
2022-08-10T07:50:24.582Z,1.98
2022-08-10T07:52:53.502Z,2.30
2022-08-10T07:56:05.147Z,2.50
2022-08-10T07:58:07.832Z,2.28
2022-08-10T08:00:36.186Z,2.30
2022-08-10T08:03:07.255Z,1.88
2022-08-10T08:05:59.416Z,2.28
2022-08-10T08:08:21.699Z,1.92
2022-08-10T08:10:49.977Z,2.05
2022-08-10T08:13:17.686Z,2.10
2022-08-10T08:16:17.153Z,2.10
2022-08-10T08:18:36.931Z,1.98
2022-08-10T08:24:07.811Z,2.65
2022-08-10T08:24:10.317Z,2.40
2022-08-10T08:26:39.023Z,2.33
2022-08-10T08:29:05.958Z,2.00
2022-08-10T08:31:33.123Z,2.00
2022-08-10T08:34:00.999Z,2.30
2022-08-10T08:36:29.016Z,2.10
2022-08-10T08:38:55.750Z,2.10
2022-08-10T08:41:36.572Z,2.50
2022-08-10T08:44:15.381Z,1.98
2022-08-10T08:48:04.610Z,2.22
2022-08-10T08:50:29.272Z,2.03
2022-08-10T08:52:59.827Z,1.90
2022-08-10T08:56:05.929Z,1.92
2022-08-10T08:58:58.815Z,2.17
2022-08-10T09:01:50.507Z,2.17
2022-08-10T09:04:29.615Z,1.98
2022-08-10T09:07:59.900Z,2.50
2022-08-10T09:10:23.377Z,2.25
2022-08-10T09:13:08.827Z,2.05
2022-08-10T09:16:17.543Z,1.90
2022-08-10T09:19:05.984Z,2.40
2022-08-10T09:22:17.274Z,2.13
2022-08-10T09:24:47.650Z,2.30
2022-08-10T09:27:29.972Z,2.20
2022-08-10T09:30:10.573Z,2.10
2022-08-10T09:36:19.399Z,2.58
2022-08-10T09:36:21.928Z,2.30
2022-08-10T09:39:10.510Z,2.50
2022-08-10T09:42:18.479Z,2.20
2022-08-10T09:45:11.938Z,2.10
2022-08-10T09:48:03.292Z,2.22
2022-08-10T09:51:27.980Z,2.38
2022-08-10T09:53:55.760Z,1.88
2022-08-10T09:56:34.825Z,2.17
2022-08-10T09:59:59.410Z,1.60
2022-08-10T10:02:21.418Z,1.67
2022-08-10T10:05:02.106Z,1.80
2022-08-10T10:07:29.983Z,1.83
2022-08-10T10:10:26.269Z,2.17
2022-08-10T10:13:07.112Z,1.80
2022-08-10T10:15:41.235Z,1.80
2022-08-10T10:18:07.962Z,1.98
2022-08-10T10:20:38.015Z,1.70
2022-08-10T10:23:15.032Z,1.83
2022-08-10T10:25:52.587Z,1.70
2022-08-10T10:29:19.611Z,2.03
2022-08-10T10:31:47.239Z,1.70
2022-08-10T10:34:43.131Z,2.22
2022-08-10T10:37:10.684Z,2.00
2022-08-10T10:39:41.081Z,2.20
2022-08-10T10:42:44.913Z,1.80
2022-08-10T10:45:15.164Z,2.00
2022-08-10T10:48:01.680Z,1.70
2022-08-10T10:50:37.336Z,2.10
2022-08-10T10:53:22.034Z,2.30
2022-08-10T10:56:14.551Z,1.85
2022-08-10T10:59:33.209Z,2.10
2022-08-10T11:02:09.890Z,2.00
2022-08-10T11:04:48.799Z,1.75
2022-08-10T11:07:33.634Z,2.10
2022-08-10T11:10:32.870Z,2.10
2022-08-10T11:14:27.235Z,2.00
2022-08-10T11:16:35.955Z,1.98
2022-08-10T11:19:23.197Z,1.70
2022-08-10T11:22:05.350Z,1.65
2022-08-10T11:24:58.822Z,1.77
2022-08-10T11:27:38.140Z,2.03
2022-08-10T11:30:14.093Z,1.83
2022-08-10T11:32:48.222Z,2.17
2022-08-10T11:35:45.954Z,1.80
2022-08-10T11:38:52.016Z,1.90
2022-08-10T11:42:10.243Z,1.60
2022-08-10T11:44:31.673Z,1.60
2022-08-10T11:47:18.589Z,1.75
2022-08-10T11:49:54.236Z,1.77
2022-08-10T11:52:51.904Z,1.70
2022-08-10T11:55:25.119Z,1.40
2022-08-10T11:57:55.971Z,1.48
2022-08-10T12:00:24.937Z,1.70
2022-08-10T12:03:03.103Z,1.55
2022-08-10T12:05:51.679Z,1.52
2022-08-10T12:10:04.950Z,1.60
2022-08-10T12:11:11.543Z,1.60
2022-08-10T12:14:21.470Z,1.70
2022-08-10T12:16:52.573Z,1.73
2022-08-10T12:19:27.552Z,1.48
2022-08-10T12:22:05.867Z,1.75
2022-08-10T12:25:01.931Z,1.70
2022-08-10T12:27:49.052Z,1.70
2022-08-10T12:30:17.433Z,1.30
2022-08-10T12:33:02.795Z,1.55
2022-08-10T12:36:14.899Z,1.35
2022-08-10T12:38:37.709Z,1.50
2022-08-10T12:41:08.146Z,1.63
2022-08-10T12:44:06.516Z,1.30
2022-08-10T12:46:55.783Z,1.65
2022-08-10T12:49:40.183Z,1.42
2022-08-10T12:52:35.342Z,1.40
2022-08-10T12:55:03.909Z,1.50
2022-08-10T12:57:35.175Z,1.48
2022-08-10T13:00:02.594Z,1.45
2022-08-10T13:02:35.834Z,1.50
2022-08-10T13:05:05.375Z,1.20
2022-08-10T13:08:04.043Z,1.38
2022-08-10T13:10:23.202Z,1.40
2022-08-10T13:12:51.857Z,1.35
2022-08-10T13:15:48.056Z,1.58
2022-08-10T13:18:18.521Z,1.30
2022-08-10T13:20:52.514Z,1.35
2022-08-10T13:23:23.519Z,1.35
2022-08-10T13:25:51.973Z,1.58
2022-08-10T13:28:36.273Z,1.40
2022-08-10T13:32:03.441Z,1.23
2022-08-10T13:34:39.290Z,1.40
2022-08-10T13:37:15.018Z,1.50
2022-08-10T13:39:58.709Z,1.60
2022-08-10T13:42:39.187Z,1.67
2022-08-10T13:45:09.930Z,1.50
2022-08-10T13:47:49.207Z,1.35
2022-08-10T13:50:33.644Z,1.27
2022-08-10T13:53:13.214Z,1.42
2022-08-10T13:55:56.186Z,1.55
2022-08-10T13:58:31.123Z,1.77
2022-08-10T14:01:00.112Z,1.40
2022-08-10T14:03:28.551Z,1.90
2022-08-10T14:05:56.775Z,1.42
2022-08-10T14:08:32.078Z,1.42
2022-08-10T14:11:12.375Z,1.50
2022-08-10T14:13:45.993Z,1.77
2022-08-10T14:16:13.672Z,1.50
2022-08-10T14:18:44.595Z,1.35
2022-08-10T14:21:12.301Z,1.55
2022-08-10T14:23:52.839Z,1.40
2022-08-10T14:26:25.175Z,1.40
2022-08-10T14:29:19.114Z,1.48
2022-08-10T14:32:01.086Z,1.40
2022-08-10T14:36:15.659Z,1.58
2022-08-10T14:37:46.272Z,1.45
2022-08-10T14:40:18.547Z,1.80
2022-08-10T14:43:01.233Z,1.60
2022-08-10T14:45:49.387Z,1.58
2022-08-10T14:48:18.731Z,1.60
2022-08-10T14:50:56.209Z,1.60
2022-08-10T14:53:30.128Z,1.48
2022-08-10T14:56:16.654Z,1.50
2022-08-10T14:58:59.126Z,1.35
2022-08-10T15:02:00.265Z,1.40
2022-08-10T15:04:24.918Z,1.60
2022-08-10T15:07:12.252Z,1.30
2022-08-10T15:10:02.162Z,1.08
2022-08-10T15:12:38.883Z,1.42
2022-08-10T15:15:10.904Z,1.20
2022-08-10T15:17:43.118Z,1.13
2022-08-10T15:20:21.129Z,1.20
2022-08-10T15:23:06.650Z,1.02
2022-08-10T15:25:36.447Z,1.10
2022-08-10T15:28:08.284Z,1.10
2022-08-10T15:30:46.577Z,1.08
2022-08-10T15:34:02.354Z,1.00
2022-08-10T15:36:43.654Z,0.98
2022-08-10T15:40:24.362Z,1.23
2022-08-10T15:42:19.355Z,1.10
2022-08-10T15:44:50.108Z,1.10
2022-08-10T15:47:28.554Z,1.10
2022-08-10T15:50:40.389Z,1.00
2022-08-10T15:53:16.464Z,1.13
2022-08-10T15:55:53.257Z,0.88
2022-08-10T15:58:39.875Z,1.00
2022-08-10T16:02:04.729Z,1.00
2022-08-10T16:04:35.457Z,1.00
2022-08-10T16:07:13.716Z,1.20
2022-08-10T16:10:22.801Z,1.10
2022-08-10T16:12:59.088Z,1.05
2022-08-10T16:15:28.632Z,1.20
2022-08-10T16:18:03.143Z,0.90
2022-08-10T16:20:32.669Z,1.20
2022-08-10T16:23:07.741Z,1.00
2022-08-10T16:25:49.785Z,1.17
2022-08-10T16:28:23.758Z,1.10
2022-08-10T16:31:01.302Z,1.20
2022-08-10T16:33:53.148Z,1.20
2022-08-10T16:36:20.967Z,1.00
2022-08-10T16:38:49.963Z,0.95
2022-08-10T16:42:03.198Z,1.10
2022-08-10T16:44:11.101Z,1.33
2022-08-10T16:46:41.978Z,1.20
2022-08-10T16:49:09.729Z,1.20
2022-08-10T16:51:38.184Z,1.20
2022-08-10T16:54:06.577Z,1.10
2022-08-10T16:56:48.981Z,0.90
2022-08-10T16:59:24.481Z,1.25
2022-08-10T17:01:58.991Z,1.10
2022-08-10T17:04:26.891Z,1.42
2022-08-10T17:06:57.002Z,1.00
2022-08-10T17:09:32.243Z,1.20
2022-08-10T17:12:05.930Z,1.58
2022-08-10T17:14:32.839Z,1.58
2022-08-10T17:17:05.553Z,1.20
2022-08-10T17:19:37.861Z,1.10
2022-08-10T17:22:15.076Z,1.25
2022-08-10T17:24:48.428Z,1.30
2022-08-10T17:28:05.377Z,1.15
2022-08-10T17:30:07.135Z,1.30
2022-08-10T17:32:54.441Z,1.10
2022-08-10T17:35:25.195Z,1.45
2022-08-10T17:38:19.711Z,1.30
2022-08-10T17:41:00.768Z,2.05
2022-08-10T17:43:58.325Z,2.38
2022-08-10T17:49:22.376Z,1.55
2022-08-10T17:51:55.886Z,1.40
2022-08-10T17:54:29.750Z,1.73
2022-08-10T17:57:00.918Z,1.30
2022-08-10T17:59:31.012Z,1.48
2022-08-10T18:07:44.595Z,1.40
2022-08-10T18:10:15.792Z,1.40
2022-08-10T18:12:51.632Z,1.60
2022-08-10T18:15:40.863Z,1.30
2022-08-10T18:18:12.676Z,1.48
2022-08-10T18:20:40.105Z,1.80
2022-08-10T18:23:08.524Z,1.60
2022-08-10T18:25:37.792Z,1.42
2022-08-10T18:28:21.795Z,1.67
2022-08-10T18:30:55.603Z,2.10
2022-08-10T18:33:33.452Z,2.03
2022-08-10T18:36:06.924Z,1.38
2022-08-10T18:38:35.836Z,1.95
2022-08-10T18:41:05.722Z,1.95
2022-08-10T18:44:06.320Z,2.00
2022-08-10T18:46:32.793Z,1.92
2022-08-10T18:49:11.742Z,1.60
2022-08-10T18:51:46.296Z,2.33
2022-08-10T18:54:39.096Z,1.60
2022-08-10T18:57:29.800Z,2.10
2022-08-10T19:00:13.609Z,2.05
2022-08-10T19:03:15.171Z,1.88
2022-08-10T19:05:48.289Z,1.98
2022-08-10T19:08:49.347Z,1.90
2022-08-10T19:11:57.166Z,1.80
2022-08-10T19:14:37.883Z,1.80
2022-08-10T19:17:27.256Z,1.60
2022-08-10T19:20:31.516Z,1.77
2022-08-10T19:23:15.440Z,1.85
2022-08-10T19:26:42.324Z,1.92
2022-08-10T19:28:58.514Z,1.95
2022-08-10T19:31:46.581Z,2.10
2022-08-10T19:34:20.459Z,1.80
2022-08-10T19:37:00.786Z,2.10
2022-08-10T19:39:51.222Z,2.13
2022-08-10T19:42:45.268Z,1.90
2022-08-10T19:46:01.138Z,2.08
2022-08-10T19:48:59.474Z,1.85
2022-08-10T19:51:32.556Z,1.90
2022-08-10T19:54:10.619Z,2.17
2022-08-10T19:56:49.610Z,2.10
2022-08-10T20:00:15.221Z,1.95
2022-08-10T20:02:54.270Z,2.40
2022-08-10T20:05:33.259Z,2.40
2022-08-10T20:08:10.038Z,2.60
2022-08-10T20:11:01.455Z,2.40
2022-08-10T20:13:42.090Z,2.00
2022-08-10T20:16:26.580Z,2.00
2022-08-10T20:18:58.736Z,2.08
2022-08-10T20:21:47.309Z,2.30
2022-08-10T20:24:28.273Z,2.95
2022-08-10T20:27:13.307Z,2.47
2022-08-10T20:30:00.763Z,2.10
2022-08-10T20:32:54.652Z,2.15
2022-08-10T20:35:54.256Z,2.10
2022-08-10T20:38:46.043Z,2.10
2022-08-10T20:41:24.546Z,1.70
2022-08-10T20:44:03.486Z,2.20
2022-08-10T20:46:43.821Z,1.65
2022-08-10T20:49:31.475Z,1.88
2022-08-10T20:52:02.295Z,2.03
2022-08-10T20:54:35.318Z,1.85
2022-08-10T20:57:56.356Z,2.67
2022-08-10T21:00:23.301Z,2.33
2022-08-10T21:03:00.314Z,1.90
2022-08-10T21:06:07.565Z,2.17
2022-08-10T21:08:34.258Z,2.08
2022-08-10T21:11:05.122Z,2.40
2022-08-10T21:13:44.829Z,2.00
2022-08-10T21:16:29.357Z,2.15
2022-08-10T21:19:12.567Z,2.05
2022-08-10T21:22:04.395Z,1.80
2022-08-10T21:25:15.473Z,1.95
2022-08-10T21:27:59.612Z,1.80
2022-08-10T21:30:42.124Z,2.10
2022-08-10T21:33:23.546Z,2.13
2022-08-10T21:35:57.353Z,2.00
2022-08-10T21:38:45.956Z,2.47
2022-08-10T21:41:58.112Z,2.40
2022-08-10T21:48:33.831Z,2.40
2022-08-10T21:52:00.529Z,2.83
2022-08-10T21:54:43.706Z,2.15
2022-08-10T21:57:43.442Z,2.03
2022-08-10T22:00:33.863Z,2.22
2022-08-10T22:03:21.748Z,2.40
2022-08-10T22:06:13.217Z,1.92
2022-08-10T22:09:04.176Z,2.75
2022-08-10T22:11:53.464Z,2.38
2022-08-10T22:14:44.446Z,1.92
2022-08-10T22:18:03.779Z,2.05
2022-08-10T22:24:22.812Z,2.22
2022-08-10T22:27:47.056Z,2.10
2022-08-10T22:30:35.818Z,2.25
2022-08-10T22:31:26.031Z,1.85
2022-08-10T22:31:28.474Z,2.63
2022-08-10T22:34:00.852Z,2.25
2022-08-10T22:36:56.324Z,2.45
2022-08-10T22:40:10.734Z,2.45
2022-08-10T22:43:09.828Z,2.30
2022-08-10T22:45:56.073Z,2.15
2022-08-10T22:48:41.332Z,2.25
2022-08-10T22:51:16.472Z,2.50
2022-08-10T22:54:09.935Z,2.13
2022-08-10T22:56:59.292Z,2.60
2022-08-10T22:59:28.823Z,2.13
2022-08-10T23:02:08.952Z,2.67
2022-08-10T23:04:44.248Z,3.13
2022-08-10T23:07:18.964Z,2.80
2022-08-10T23:09:59.972Z,2.40
2022-08-10T23:12:49.963Z,2.60
2022-08-10T23:15:49.599Z,4.63
2022-08-10T23:18:38.316Z,5.45
2022-08-10T23:21:06.686Z,4.90
2022-08-10T23:23:39.562Z,5.15
2022-08-10T23:26:11.504Z,5.15
2022-08-10T23:28:59.877Z,4.32
2022-08-10T23:32:01.057Z,3.88
2022-08-10T23:34:19.308Z,4.18
2022-08-10T23:36:49.390Z,4.75
2022-08-10T23:39:25.825Z,3.50
2022-08-10T23:42:04.672Z,3.67
2022-08-10T23:44:45.702Z,3.33
2022-08-10T23:47:15.426Z,2.88
2022-08-10T23:49:43.244Z,3.22
2022-08-10T23:52:12.866Z,3.10
2022-08-10T23:54:56.296Z,3.10
2022-08-10T23:57:24.249Z,2.95
2022-08-10T23:59:54.398Z,2.85
